sensor_id;sensor_type;location;lat;lon;timestamp;temperature;humidity
12307;DHT22;6216;51.146;7.008;2024-01-25T00:00:40;9.20;99.90
12307;DHT22;6216;51.146;7.008;2024-01-25T00:03:08;9.20;99.90
12307;DHT22;6216;51.146;7.008;2024-01-25T00:05:38;9.20;99.90
12307;DHT22;6216;51.146;7.008;2024-01-25T00:08:06;9.20;99.90
12307;DHT22;6216;51.146;7.008;2024-01-25T00:10:34;9.20;99.90
12307;DHT22;6216;51.146;7.008;2024-01-25T00:13:02;9.20;99.90
12307;DHT22;6216;51.146;7.008;2024-01-25T00:15:30;9.20;99.90
12307;DHT22;6216;51.146;7.008;2024-01-25T00:17:58;9.20;99.90
12307;DHT22;6216;51.146;7.008;2024-01-25T00:20:26;9.30;99.90
12307;DHT22;6216;51.146;7.008;2024-01-25T00:22:55;9.30;99.90
12307;DHT22;6216;51.146;7.008;2024-01-25T00:25:23;9.20;99.90
12307;DHT22;6216;51.146;7.008;2024-01-25T00:27:52;9.20;99.90
12307;DHT22;6216;51.146;7.008;2024-01-25T00:30:20;9.20;99.90
12307;DHT22;6216;51.146;7.008;2024-01-25T00:32:48;9.20;99.90
12307;DHT22;6216;51.146;7.008;2024-01-25T00:35:17;9.20;99.90
12307;DHT22;6216;51.146;7.008;2024-01-25T00:37:46;9.30;99.90
12307;DHT22;6216;51.146;7.008;2024-01-25T00:40:16;9.30;99.90
12307;DHT22;6216;51.146;7.008;2024-01-25T00:42:46;9.40;99.90
12307;DHT22;6216;51.146;7.008;2024-01-25T00:45:20;9.40;99.90
12307;DHT22;6216;51.146;7.008;2024-01-25T00:47:49;9.30;99.90
12307;DHT22;6216;51.146;7.008;2024-01-25T00:50:18;9.40;99.90
12307;DHT22;6216;51.146;7.008;2024-01-25T00:52:48;9.40;99.90
12307;DHT22;6216;51.146;7.008;2024-01-25T00:55:18;9.40;99.90
12307;DHT22;6216;51.146;7.008;2024-01-25T00:57:47;9.40;99.90
12307;DHT22;6216;51.146;7.008;2024-01-25T01:00:16;9.30;99.90
12307;DHT22;6216;51.146;7.008;2024-01-25T01:02:44;9.30;99.90
12307;DHT22;6216;51.146;7.008;2024-01-25T01:05:13;9.30;99.90
12307;DHT22;6216;51.146;7.008;2024-01-25T01:07:42;9.30;99.90
12307;DHT22;6216;51.146;7.008;2024-01-25T01:10:11;9.30;99.90
12307;DHT22;6216;51.146;7.008;2024-01-25T01:12:42;9.30;99.90
12307;DHT22;6216;51.146;7.008;2024-01-25T01:15:10;9.30;99.90
12307;DHT22;6216;51.146;7.008;2024-01-25T01:17:38;9.30;99.90
12307;DHT22;6216;51.146;7.008;2024-01-25T01:20:07;9.20;99.90
12307;DHT22;6216;51.146;7.008;2024-01-25T01:22:35;9.20;99.90
12307;DHT22;6216;51.146;7.008;2024-01-25T01:25:04;9.30;99.90
12307;DHT22;6216;51.146;7.008;2024-01-25T01:27:32;9.10;99.90
12307;DHT22;6216;51.146;7.008;2024-01-25T01:30:02;9.10;99.90
12307;DHT22;6216;51.146;7.008;2024-01-25T01:32:30;9.10;99.90
12307;DHT22;6216;51.146;7.008;2024-01-25T01:34:57;9.00;99.90
12307;DHT22;6216;51.146;7.008;2024-01-25T01:37:26;9.10;99.90
12307;DHT22;6216;51.146;7.008;2024-01-25T01:39:54;9.00;99.90
12307;DHT22;6216;51.146;7.008;2024-01-25T01:42:23;9.00;99.90
12307;DHT22;6216;51.146;7.008;2024-01-25T01:44:52;8.90;99.90
12307;DHT22;6216;51.146;7.008;2024-01-25T01:47:21;8.90;99.90
12307;DHT22;6216;51.146;7.008;2024-01-25T01:49:50;8.90;99.90
12307;DHT22;6216;51.146;7.008;2024-01-25T01:52:18;8.80;99.90
12307;DHT22;6216;51.146;7.008;2024-01-25T01:54:47;8.90;99.90
12307;DHT22;6216;51.146;7.008;2024-01-25T01:57:16;8.80;99.90
12307;DHT22;6216;51.146;7.008;2024-01-25T01:59:44;8.80;99.90
12307;DHT22;6216;51.146;7.008;2024-01-25T02:02:13;8.80;99.90
12307;DHT22;6216;51.146;7.008;2024-01-25T02:04:43;8.80;99.90
12307;DHT22;6216;51.146;7.008;2024-01-25T02:07:11;8.80;99.90
12307;DHT22;6216;51.146;7.008;2024-01-25T02:09:41;8.80;99.90
12307;DHT22;6216;51.146;7.008;2024-01-25T02:12:09;8.80;99.90
12307;DHT22;6216;51.146;7.008;2024-01-25T02:14:37;8.80;99.90
12307;DHT22;6216;51.146;7.008;2024-01-25T02:17:05;8.80;99.90
12307;DHT22;6216;51.146;7.008;2024-01-25T02:19:32;8.80;99.90
12307;DHT22;6216;51.146;7.008;2024-01-25T02:22:04;8.80;99.90
12307;DHT22;6216;51.146;7.008;2024-01-25T02:24:34;8.80;99.90
12307;DHT22;6216;51.146;7.008;2024-01-25T02:27:02;8.90;99.90
12307;DHT22;6216;51.146;7.008;2024-01-25T02:29:31;8.90;99.90
12307;DHT22;6216;51.146;7.008;2024-01-25T02:31:59;8.90;99.90
12307;DHT22;6216;51.146;7.008;2024-01-25T02:34:27;8.80;99.90
12307;DHT22;6216;51.146;7.008;2024-01-25T02:36:55;8.90;99.90
12307;DHT22;6216;51.146;7.008;2024-01-25T02:39:23;8.90;99.90
12307;DHT22;6216;51.146;7.008;2024-01-25T02:41:52;8.90;99.90
12307;DHT22;6216;51.146;7.008;2024-01-25T02:44:20;8.90;99.90
12307;DHT22;6216;51.146;7.008;2024-01-25T02:46:48;9.00;99.90
12307;DHT22;6216;51.146;7.008;2024-01-25T02:49:16;9.00;99.90
12307;DHT22;6216;51.146;7.008;2024-01-25T02:51:44;8.90;99.90
12307;DHT22;6216;51.146;7.008;2024-01-25T02:54:12;8.90;99.90
12307;DHT22;6216;51.146;7.008;2024-01-25T02:56:40;8.90;99.90
12307;DHT22;6216;51.146;7.008;2024-01-25T02:59:09;8.90;99.90
12307;DHT22;6216;51.146;7.008;2024-01-25T03:01:39;8.90;99.90
12307;DHT22;6216;51.146;7.008;2024-01-25T03:04:08;8.90;99.90
12307;DHT22;6216;51.146;7.008;2024-01-25T03:06:36;8.90;99.90
12307;DHT22;6216;51.146;7.008;2024-01-25T03:09:04;8.90;99.90
12307;DHT22;6216;51.146;7.008;2024-01-25T03:11:32;8.90;99.90
12307;DHT22;6216;51.146;7.008;2024-01-25T03:14:00;8.90;99.90
12307;DHT22;6216;51.146;7.008;2024-01-25T03:16:29;8.90;99.90
12307;DHT22;6216;51.146;7.008;2024-01-25T03:18:57;8.90;99.90
12307;DHT22;6216;51.146;7.008;2024-01-25T03:21:25;8.90;99.90
12307;DHT22;6216;51.146;7.008;2024-01-25T03:23:54;8.90;99.90
12307;DHT22;6216;51.146;7.008;2024-01-25T03:26:21;8.80;99.90
12307;DHT22;6216;51.146;7.008;2024-01-25T03:28:49;8.80;99.90
12307;DHT22;6216;51.146;7.008;2024-01-25T03:31:17;8.70;99.90
12307;DHT22;6216;51.146;7.008;2024-01-25T03:33:47;8.60;99.90
12307;DHT22;6216;51.146;7.008;2024-01-25T03:36:16;8.60;99.90
12307;DHT22;6216;51.146;7.008;2024-01-25T03:38:44;8.60;99.90
12307;DHT22;6216;51.146;7.008;2024-01-25T03:41:11;8.60;99.90
12307;DHT22;6216;51.146;7.008;2024-01-25T03:43:39;8.50;99.90
12307;DHT22;6216;51.146;7.008;2024-01-25T03:46:10;8.50;99.90
12307;DHT22;6216;51.146;7.008;2024-01-25T03:48:39;8.50;99.90
12307;DHT22;6216;51.146;7.008;2024-01-25T03:51:08;8.50;99.90
12307;DHT22;6216;51.146;7.008;2024-01-25T03:53:36;8.50;99.90
12307;DHT22;6216;51.146;7.008;2024-01-25T03:56:10;8.50;99.90
12307;DHT22;6216;51.146;7.008;2024-01-25T03:58:38;8.50;99.90
12307;DHT22;6216;51.146;7.008;2024-01-25T04:01:06;8.50;99.90
12307;DHT22;6216;51.146;7.008;2024-01-25T04:03:36;8.50;99.90
12307;DHT22;6216;51.146;7.008;2024-01-25T04:06:04;8.50;99.90
12307;DHT22;6216;51.146;7.008;2024-01-25T04:08:34;8.50;99.90
12307;DHT22;6216;51.146;7.008;2024-01-25T04:11:02;8.40;99.90
12307;DHT22;6216;51.146;7.008;2024-01-25T04:13:30;8.50;99.90
12307;DHT22;6216;51.146;7.008;2024-01-25T04:15:58;8.40;99.90
12307;DHT22;6216;51.146;7.008;2024-01-25T04:18:26;8.40;99.90
12307;DHT22;6216;51.146;7.008;2024-01-25T04:20:54;8.40;99.90
12307;DHT22;6216;51.146;7.008;2024-01-25T04:23:22;8.30;99.90
12307;DHT22;6216;51.146;7.008;2024-01-25T04:25:51;8.30;99.90
12307;DHT22;6216;51.146;7.008;2024-01-25T04:28:22;8.30;99.90
12307;DHT22;6216;51.146;7.008;2024-01-25T04:30:50;8.30;99.90
12307;DHT22;6216;51.146;7.008;2024-01-25T04:33:18;8.30;99.90
12307;DHT22;6216;51.146;7.008;2024-01-25T04:35:46;8.30;99.90
12307;DHT22;6216;51.146;7.008;2024-01-25T04:38:13;8.30;99.90
12307;DHT22;6216;51.146;7.008;2024-01-25T04:40:41;8.30;99.90
12307;DHT22;6216;51.146;7.008;2024-01-25T04:43:11;8.30;99.90
12307;DHT22;6216;51.146;7.008;2024-01-25T04:45:39;8.20;99.90
12307;DHT22;6216;51.146;7.008;2024-01-25T04:48:07;8.20;99.90
12307;DHT22;6216;51.146;7.008;2024-01-25T04:50:35;8.10;99.90
12307;DHT22;6216;51.146;7.008;2024-01-25T04:53:05;8.10;99.90
12307;DHT22;6216;51.146;7.008;2024-01-25T04:55:33;8.10;99.90
12307;DHT22;6216;51.146;7.008;2024-01-25T04:58:01;8.00;99.90
12307;DHT22;6216;51.146;7.008;2024-01-25T05:00:30;8.10;99.90
12307;DHT22;6216;51.146;7.008;2024-01-25T05:02:58;8.10;99.90
12307;DHT22;6216;51.146;7.008;2024-01-25T05:05:26;8.00;99.90
12307;DHT22;6216;51.146;7.008;2024-01-25T05:07:54;8.10;99.90
12307;DHT22;6216;51.146;7.008;2024-01-25T05:10:22;7.90;99.90
12307;DHT22;6216;51.146;7.008;2024-01-25T05:12:52;7.90;99.90
12307;DHT22;6216;51.146;7.008;2024-01-25T05:15:20;7.90;99.90
12307;DHT22;6216;51.146;7.008;2024-01-25T05:17:49;7.90;99.90
12307;DHT22;6216;51.146;7.008;2024-01-25T05:20:17;7.80;99.90
12307;DHT22;6216;51.146;7.008;2024-01-25T05:22:46;7.90;99.90
12307;DHT22;6216;51.146;7.008;2024-01-25T05:25:14;7.80;99.90
12307;DHT22;6216;51.146;7.008;2024-01-25T05:27:42;7.70;99.90
12307;DHT22;6216;51.146;7.008;2024-01-25T05:30:10;7.70;99.90
12307;DHT22;6216;51.146;7.008;2024-01-25T05:32:38;7.70;99.90
12307;DHT22;6216;51.146;7.008;2024-01-25T05:35:08;7.70;99.90
12307;DHT22;6216;51.146;7.008;2024-01-25T05:37:36;7.70;99.90
12307;DHT22;6216;51.146;7.008;2024-01-25T05:40:05;7.70;99.90
12307;DHT22;6216;51.146;7.008;2024-01-25T05:42:33;7.70;99.90
12307;DHT22;6216;51.146;7.008;2024-01-25T05:45:02;7.70;99.90
12307;DHT22;6216;51.146;7.008;2024-01-25T05:47:30;7.60;99.90
12307;DHT22;6216;51.146;7.008;2024-01-25T05:49:58;7.50;99.90
12307;DHT22;6216;51.146;7.008;2024-01-25T05:52:28;7.40;99.90
12307;DHT22;6216;51.146;7.008;2024-01-25T05:54:56;7.30;99.90
12307;DHT22;6216;51.146;7.008;2024-01-25T05:57:28;7.30;99.90
12307;DHT22;6216;51.146;7.008;2024-01-25T05:59:56;7.30;99.90
12307;DHT22;6216;51.146;7.008;2024-01-25T06:02:24;7.20;99.90
12307;DHT22;6216;51.146;7.008;2024-01-25T06:04:53;7.30;99.90
12307;DHT22;6216;51.146;7.008;2024-01-25T06:07:21;7.30;99.90
12307;DHT22;6216;51.146;7.008;2024-01-25T06:09:51;7.30;99.90
12307;DHT22;6216;51.146;7.008;2024-01-25T06:12:19;7.30;99.90
12307;DHT22;6216;51.146;7.008;2024-01-25T06:14:47;7.30;99.90
12307;DHT22;6216;51.146;7.008;2024-01-25T06:17:15;7.40;99.90
12307;DHT22;6216;51.146;7.008;2024-01-25T06:19:43;7.40;99.90
12307;DHT22;6216;51.146;7.008;2024-01-25T06:22:12;7.40;99.90
12307;DHT22;6216;51.146;7.008;2024-01-25T06:24:40;7.30;99.90
12307;DHT22;6216;51.146;7.008;2024-01-25T06:27:09;7.30;99.90
12307;DHT22;6216;51.146;7.008;2024-01-25T06:29:37;7.30;99.90
12307;DHT22;6216;51.146;7.008;2024-01-25T06:32:06;7.20;99.90
12307;DHT22;6216;51.146;7.008;2024-01-25T06:34:39;7.20;99.90
12307;DHT22;6216;51.146;7.008;2024-01-25T06:37:08;7.20;99.90
12307;DHT22;6216;51.146;7.008;2024-01-25T06:39:39;7.20;99.90
12307;DHT22;6216;51.146;7.008;2024-01-25T06:42:06;7.10;99.90
12307;DHT22;6216;51.146;7.008;2024-01-25T06:44:36;7.10;99.90
12307;DHT22;6216;51.146;7.008;2024-01-25T06:47:04;7.10;99.90
12307;DHT22;6216;51.146;7.008;2024-01-25T06:49:34;7.10;99.90
12307;DHT22;6216;51.146;7.008;2024-01-25T06:52:02;7.10;99.90
12307;DHT22;6216;51.146;7.008;2024-01-25T06:54:31;7.00;99.90
12307;DHT22;6216;51.146;7.008;2024-01-25T06:56:59;7.00;99.90
12307;DHT22;6216;51.146;7.008;2024-01-25T06:59:27;7.00;99.90
12307;DHT22;6216;51.146;7.008;2024-01-25T07:01:55;7.00;99.90
12307;DHT22;6216;51.146;7.008;2024-01-25T07:04:24;7.00;99.90
12307;DHT22;6216;51.146;7.008;2024-01-25T07:06:53;7.00;99.90
12307;DHT22;6216;51.146;7.008;2024-01-25T07:09:21;7.00;99.90
12307;DHT22;6216;51.146;7.008;2024-01-25T07:11:49;6.90;99.90
12307;DHT22;6216;51.146;7.008;2024-01-25T07:14:16;6.90;99.90
12307;DHT22;6216;51.146;7.008;2024-01-25T07:16:44;6.90;99.90
12307;DHT22;6216;51.146;7.008;2024-01-25T07:19:13;7.00;99.90
12307;DHT22;6216;51.146;7.008;2024-01-25T07:21:42;6.90;99.90
12307;DHT22;6216;51.146;7.008;2024-01-25T07:24:12;6.80;99.90
12307;DHT22;6216;51.146;7.008;2024-01-25T07:26:40;6.90;99.90
12307;DHT22;6216;51.146;7.008;2024-01-25T07:29:08;6.80;99.90
12307;DHT22;6216;51.146;7.008;2024-01-25T07:31:36;6.90;99.90
12307;DHT22;6216;51.146;7.008;2024-01-25T07:34:04;6.80;99.90
12307;DHT22;6216;51.146;7.008;2024-01-25T07:36:33;6.60;99.90
12307;DHT22;6216;51.146;7.008;2024-01-25T07:39:01;6.60;99.90
12307;DHT22;6216;51.146;7.008;2024-01-25T07:41:29;6.60;99.90
12307;DHT22;6216;51.146;7.008;2024-01-25T07:43:57;6.80;99.90
12307;DHT22;6216;51.146;7.008;2024-01-25T07:46:25;6.80;99.90
12307;DHT22;6216;51.146;7.008;2024-01-25T07:48:53;6.90;99.90
12307;DHT22;6216;51.146;7.008;2024-01-25T07:51:20;6.80;99.90
12307;DHT22;6216;51.146;7.008;2024-01-25T07:53:49;6.90;99.90
12307;DHT22;6216;51.146;7.008;2024-01-25T07:56:17;6.90;99.90
12307;DHT22;6216;51.146;7.008;2024-01-25T07:58:45;6.90;99.90
12307;DHT22;6216;51.146;7.008;2024-01-25T08:01:17;7.00;99.90
12307;DHT22;6216;51.146;7.008;2024-01-25T08:03:45;7.10;99.90
12307;DHT22;6216;51.146;7.008;2024-01-25T08:06:13;7.10;99.90
12307;DHT22;6216;51.146;7.008;2024-01-25T08:08:41;7.20;99.90
12307;DHT22;6216;51.146;7.008;2024-01-25T08:11:11;7.20;99.90
12307;DHT22;6216;51.146;7.008;2024-01-25T08:13:42;7.10;99.90
12307;DHT22;6216;51.146;7.008;2024-01-25T08:16:10;7.20;99.90
12307;DHT22;6216;51.146;7.008;2024-01-25T08:18:39;7.20;99.90
12307;DHT22;6216;51.146;7.008;2024-01-25T08:21:07;7.20;99.90
12307;DHT22;6216;51.146;7.008;2024-01-25T08:23:35;7.20;99.90
12307;DHT22;6216;51.146;7.008;2024-01-25T08:26:03;7.30;99.90
12307;DHT22;6216;51.146;7.008;2024-01-25T08:28:32;7.30;99.90
12307;DHT22;6216;51.146;7.008;2024-01-25T08:31:00;7.30;99.90
12307;DHT22;6216;51.146;7.008;2024-01-25T08:33:28;7.30;99.90
12307;DHT22;6216;51.146;7.008;2024-01-25T08:35:56;7.30;99.90
12307;DHT22;6216;51.146;7.008;2024-01-25T08:38:24;7.40;99.90
12307;DHT22;6216;51.146;7.008;2024-01-25T08:40:52;7.50;99.90
12307;DHT22;6216;51.146;7.008;2024-01-25T08:43:20;7.70;99.90
12307;DHT22;6216;51.146;7.008;2024-01-25T08:45:49;7.70;99.90
12307;DHT22;6216;51.146;7.008;2024-01-25T08:48:17;7.90;99.90
12307;DHT22;6216;51.146;7.008;2024-01-25T08:50:45;7.90;99.90
12307;DHT22;6216;51.146;7.008;2024-01-25T08:53:13;7.90;99.90
12307;DHT22;6216;51.146;7.008;2024-01-25T08:55:42;7.80;99.90
12307;DHT22;6216;51.146;7.008;2024-01-25T08:58:10;7.60;99.90
12307;DHT22;6216;51.146;7.008;2024-01-25T09:00:38;7.60;99.90
12307;DHT22;6216;51.146;7.008;2024-01-25T09:03:08;7.60;99.90
12307;DHT22;6216;51.146;7.008;2024-01-25T09:05:36;7.60;99.90
12307;DHT22;6216;51.146;7.008;2024-01-25T09:08:07;7.60;99.90
12307;DHT22;6216;51.146;7.008;2024-01-25T09:10:36;7.60;99.90
12307;DHT22;6216;51.146;7.008;2024-01-25T09:13:04;7.70;99.90
12307;DHT22;6216;51.146;7.008;2024-01-25T09:15:32;7.70;99.90
12307;DHT22;6216;51.146;7.008;2024-01-25T09:18:00;7.90;99.90
12307;DHT22;6216;51.146;7.008;2024-01-25T09:20:30;7.90;99.90
12307;DHT22;6216;51.146;7.008;2024-01-25T09:22:58;8.00;99.90
12307;DHT22;6216;51.146;7.008;2024-01-25T09:25:26;8.10;99.90
12307;DHT22;6216;51.146;7.008;2024-01-25T09:27:54;8.20;99.90
12307;DHT22;6216;51.146;7.008;2024-01-25T09:30:23;8.20;99.90
12307;DHT22;6216;51.146;7.008;2024-01-25T09:32:53;8.40;99.90
12307;DHT22;6216;51.146;7.008;2024-01-25T09:35:21;8.60;99.90
12307;DHT22;6216;51.146;7.008;2024-01-25T09:37:51;8.50;99.90
12307;DHT22;6216;51.146;7.008;2024-01-25T09:40:19;8.60;99.90
12307;DHT22;6216;51.146;7.008;2024-01-25T09:42:48;8.70;99.90
12307;DHT22;6216;51.146;7.008;2024-01-25T09:45:17;8.80;99.90
12307;DHT22;6216;51.146;7.008;2024-01-25T09:47:46;9.00;99.90
12307;DHT22;6216;51.146;7.008;2024-01-25T09:50:15;9.30;99.90
12307;DHT22;6216;51.146;7.008;2024-01-25T09:52:43;9.60;99.90
12307;DHT22;6216;51.146;7.008;2024-01-25T09:55:15;9.90;99.90
12307;DHT22;6216;51.146;7.008;2024-01-25T09:57:48;10.10;99.90
12307;DHT22;6216;51.146;7.008;2024-01-25T10:00:17;10.40;99.90
12307;DHT22;6216;51.146;7.008;2024-01-25T10:02:47;10.80;99.90
12307;DHT22;6216;51.146;7.008;2024-01-25T10:05:16;11.30;99.90
12307;DHT22;6216;51.146;7.008;2024-01-25T10:07:45;11.50;99.90
12307;DHT22;6216;51.146;7.008;2024-01-25T10:10:15;11.60;99.90
12307;DHT22;6216;51.146;7.008;2024-01-25T10:12:43;12.00;99.90
12307;DHT22;6216;51.146;7.008;2024-01-25T10:15:11;12.60;99.90
12307;DHT22;6216;51.146;7.008;2024-01-25T10:17:40;12.90;99.90
12307;DHT22;6216;51.146;7.008;2024-01-25T10:20:13;13.40;99.90
12307;DHT22;6216;51.146;7.008;2024-01-25T10:22:43;13.50;99.90
12307;DHT22;6216;51.146;7.008;2024-01-25T10:25:13;13.10;99.90
12307;DHT22;6216;51.146;7.008;2024-01-25T10:27:43;13.20;99.90
12307;DHT22;6216;51.146;7.008;2024-01-25T10:30:12;12.70;99.90
12307;DHT22;6216;51.146;7.008;2024-01-25T10:32:41;12.10;99.90
12307;DHT22;6216;51.146;7.008;2024-01-25T10:35:11;11.80;99.90
12307;DHT22;6216;51.146;7.008;2024-01-25T10:37:40;11.30;99.90
12307;DHT22;6216;51.146;7.008;2024-01-25T10:40:10;10.80;99.90
12307;DHT22;6216;51.146;7.008;2024-01-25T10:42:38;10.70;99.90
12307;DHT22;6216;51.146;7.008;2024-01-25T10:45:08;10.40;99.90
12307;DHT22;6216;51.146;7.008;2024-01-25T10:47:37;10.30;99.90
12307;DHT22;6216;51.146;7.008;2024-01-25T10:50:08;10.10;99.90
12307;DHT22;6216;51.146;7.008;2024-01-25T10:52:37;9.90;99.90
12307;DHT22;6216;51.146;7.008;2024-01-25T10:55:07;9.80;99.90
12307;DHT22;6216;51.146;7.008;2024-01-25T10:57:35;9.90;99.90
12307;DHT22;6216;51.146;7.008;2024-01-25T11:00:09;9.80;99.90
12307;DHT22;6216;51.146;7.008;2024-01-25T11:02:37;9.70;99.90
12307;DHT22;6216;51.146;7.008;2024-01-25T11:05:08;9.70;99.90
12307;DHT22;6216;51.146;7.008;2024-01-25T11:07:44;9.80;99.90
12307;DHT22;6216;51.146;7.008;2024-01-25T11:10:14;9.90;99.90
12307;DHT22;6216;51.146;7.008;2024-01-25T11:12:50;10.20;99.90
12307;DHT22;6216;51.146;7.008;2024-01-25T11:15:30;10.80;99.90
12307;DHT22;6216;51.146;7.008;2024-01-25T11:18:00;11.10;99.90
12307;DHT22;6216;51.146;7.008;2024-01-25T11:20:30;11.70;99.90
12307;DHT22;6216;51.146;7.008;2024-01-25T11:23:01;12.30;99.90
12307;DHT22;6216;51.146;7.008;2024-01-25T11:25:29;12.80;99.90
12307;DHT22;6216;51.146;7.008;2024-01-25T11:27:59;13.20;99.90
12307;DHT22;6216;51.146;7.008;2024-01-25T11:30:30;13.60;99.90
12307;DHT22;6216;51.146;7.008;2024-01-25T11:32:58;14.10;99.90
12307;DHT22;6216;51.146;7.008;2024-01-25T11:35:26;13.60;99.90
12307;DHT22;6216;51.146;7.008;2024-01-25T11:37:54;13.50;99.90
12307;DHT22;6216;51.146;7.008;2024-01-25T11:40:23;13.30;99.90
12307;DHT22;6216;51.146;7.008;2024-01-25T11:42:52;12.90;99.90
12307;DHT22;6216;51.146;7.008;2024-01-25T11:45:21;13.00;99.90
12307;DHT22;6216;51.146;7.008;2024-01-25T11:47:51;12.70;99.90
12307;DHT22;6216;51.146;7.008;2024-01-25T11:50:19;12.50;99.90
12307;DHT22;6216;51.146;7.008;2024-01-25T11:52:49;12.00;99.90
12307;DHT22;6216;51.146;7.008;2024-01-25T11:55:17;11.70;99.90
12307;DHT22;6216;51.146;7.008;2024-01-25T11:57:46;11.60;99.90
12307;DHT22;6216;51.146;7.008;2024-01-25T12:00:15;11.50;99.90
12307;DHT22;6216;51.146;7.008;2024-01-25T12:02:43;11.40;99.90
12307;DHT22;6216;51.146;7.008;2024-01-25T12:05:13;11.10;99.90
12307;DHT22;6216;51.146;7.008;2024-01-25T12:07:41;11.00;99.90
12307;DHT22;6216;51.146;7.008;2024-01-25T12:10:15;10.90;99.90
12307;DHT22;6216;51.146;7.008;2024-01-25T12:12:44;10.80;99.90
12307;DHT22;6216;51.146;7.008;2024-01-25T12:15:12;10.80;99.90
12307;DHT22;6216;51.146;7.008;2024-01-25T12:17:40;10.60;99.90
12307;DHT22;6216;51.146;7.008;2024-01-25T12:20:12;10.60;99.90
12307;DHT22;6216;51.146;7.008;2024-01-25T12:22:41;10.60;99.90
12307;DHT22;6216;51.146;7.008;2024-01-25T12:25:10;10.40;99.90
12307;DHT22;6216;51.146;7.008;2024-01-25T12:27:40;10.40;99.90
12307;DHT22;6216;51.146;7.008;2024-01-25T12:30:09;10.30;99.90
12307;DHT22;6216;51.146;7.008;2024-01-25T12:32:37;10.50;99.90
12307;DHT22;6216;51.146;7.008;2024-01-25T12:35:06;10.40;99.90
12307;DHT22;6216;51.146;7.008;2024-01-25T12:37:36;10.50;99.90
12307;DHT22;6216;51.146;7.008;2024-01-25T12:40:06;10.30;99.90
12307;DHT22;6216;51.146;7.008;2024-01-25T12:42:34;10.30;99.90
12307;DHT22;6216;51.146;7.008;2024-01-25T12:45:03;10.30;99.90
12307;DHT22;6216;51.146;7.008;2024-01-25T12:47:32;10.30;99.90
12307;DHT22;6216;51.146;7.008;2024-01-25T12:50:00;10.20;99.90
12307;DHT22;6216;51.146;7.008;2024-01-25T12:52:29;10.00;99.90
12307;DHT22;6216;51.146;7.008;2024-01-25T12:54:59;10.00;99.90
12307;DHT22;6216;51.146;7.008;2024-01-25T12:57:29;10.00;99.90
12307;DHT22;6216;51.146;7.008;2024-01-25T12:59:59;10.00;99.90
12307;DHT22;6216;51.146;7.008;2024-01-25T13:02:28;10.00;99.90
12307;DHT22;6216;51.146;7.008;2024-01-25T13:04:55;9.90;99.90
12307;DHT22;6216;51.146;7.008;2024-01-25T13:07:24;10.00;99.90
12307;DHT22;6216;51.146;7.008;2024-01-25T13:09:52;10.10;99.90
12307;DHT22;6216;51.146;7.008;2024-01-25T13:12:21;10.00;99.90
12307;DHT22;6216;51.146;7.008;2024-01-25T13:14:49;10.10;99.90
12307;DHT22;6216;51.146;7.008;2024-01-25T13:17:17;10.10;99.90
12307;DHT22;6216;51.146;7.008;2024-01-25T13:19:48;10.10;99.90
12307;DHT22;6216;51.146;7.008;2024-01-25T13:22:16;10.10;99.90
12307;DHT22;6216;51.146;7.008;2024-01-25T13:24:47;10.00;99.90
12307;DHT22;6216;51.146;7.008;2024-01-25T13:27:15;10.00;99.90
12307;DHT22;6216;51.146;7.008;2024-01-25T13:29:45;10.10;99.90
12307;DHT22;6216;51.146;7.008;2024-01-25T13:32:13;10.00;99.90
12307;DHT22;6216;51.146;7.008;2024-01-25T13:34:41;10.20;99.90
12307;DHT22;6216;51.146;7.008;2024-01-25T13:37:08;10.30;99.90
12307;DHT22;6216;51.146;7.008;2024-01-25T13:39:36;10.40;99.90
12307;DHT22;6216;51.146;7.008;2024-01-25T13:42:04;10.40;99.90
12307;DHT22;6216;51.146;7.008;2024-01-25T13:44:32;10.50;99.90
12307;DHT22;6216;51.146;7.008;2024-01-25T13:47:01;10.60;99.90
12307;DHT22;6216;51.146;7.008;2024-01-25T13:49:29;10.60;99.90
12307;DHT22;6216;51.146;7.008;2024-01-25T13:52:00;10.70;99.90
12307;DHT22;6216;51.146;7.008;2024-01-25T13:54:29;10.80;99.90
12307;DHT22;6216;51.146;7.008;2024-01-25T13:56:57;10.80;99.90
12307;DHT22;6216;51.146;7.008;2024-01-25T13:59:25;10.70;99.90
12307;DHT22;6216;51.146;7.008;2024-01-25T14:01:53;10.80;99.90
12307;DHT22;6216;51.146;7.008;2024-01-25T14:04:22;10.80;99.90
12307;DHT22;6216;51.146;7.008;2024-01-25T14:06:50;10.80;99.90
12307;DHT22;6216;51.146;7.008;2024-01-25T14:09:18;10.80;99.90
12307;DHT22;6216;51.146;7.008;2024-01-25T14:11:47;10.70;99.90
12307;DHT22;6216;51.146;7.008;2024-01-25T14:14:15;10.70;99.90
12307;DHT22;6216;51.146;7.008;2024-01-25T14:16:43;10.60;99.90
12307;DHT22;6216;51.146;7.008;2024-01-25T14:19:11;10.60;99.90
12307;DHT22;6216;51.146;7.008;2024-01-25T14:21:41;10.60;99.90
12307;DHT22;6216;51.146;7.008;2024-01-25T14:24:09;10.60;99.90
12307;DHT22;6216;51.146;7.008;2024-01-25T14:26:37;10.60;99.90
12307;DHT22;6216;51.146;7.008;2024-01-25T14:29:06;10.60;99.90
12307;DHT22;6216;51.146;7.008;2024-01-25T14:31:34;10.70;99.90
12307;DHT22;6216;51.146;7.008;2024-01-25T14:34:02;10.70;99.90
12307;DHT22;6216;51.146;7.008;2024-01-25T14:36:30;10.60;99.90
12307;DHT22;6216;51.146;7.008;2024-01-25T14:38:59;10.40;99.90
12307;DHT22;6216;51.146;7.008;2024-01-25T14:41:27;10.40;99.90
12307;DHT22;6216;51.146;7.008;2024-01-25T14:43:55;10.30;99.90
12307;DHT22;6216;51.146;7.008;2024-01-25T14:46:23;10.30;99.90
12307;DHT22;6216;51.146;7.008;2024-01-25T14:48:51;10.30;99.90
12307;DHT22;6216;51.146;7.008;2024-01-25T14:51:19;10.30;99.90
12307;DHT22;6216;51.146;7.008;2024-01-25T14:53:47;10.30;99.90
12307;DHT22;6216;51.146;7.008;2024-01-25T14:56:16;10.20;99.90
12307;DHT22;6216;51.146;7.008;2024-01-25T14:58:44;10.20;99.90
12307;DHT22;6216;51.146;7.008;2024-01-25T15:01:13;10.20;99.90
12307;DHT22;6216;51.146;7.008;2024-01-25T15:03:42;10.10;99.90
12307;DHT22;6216;51.146;7.008;2024-01-25T15:06:10;10.00;99.90
12307;DHT22;6216;51.146;7.008;2024-01-25T15:08:38;10.00;99.90
12307;DHT22;6216;51.146;7.008;2024-01-25T15:11:06;10.00;99.90
12307;DHT22;6216;51.146;7.008;2024-01-25T15:13:36;9.90;99.90
12307;DHT22;6216;51.146;7.008;2024-01-25T15:16:04;9.90;99.90
12307;DHT22;6216;51.146;7.008;2024-01-25T15:18:32;9.90;99.90
12307;DHT22;6216;51.146;7.008;2024-01-25T15:21:00;9.90;99.90
12307;DHT22;6216;51.146;7.008;2024-01-25T15:23:28;9.90;99.90
12307;DHT22;6216;51.146;7.008;2024-01-25T15:25:57;9.90;99.90
12307;DHT22;6216;51.146;7.008;2024-01-25T15:28:25;9.90;99.90
12307;DHT22;6216;51.146;7.008;2024-01-25T15:30:54;9.90;99.90
12307;DHT22;6216;51.146;7.008;2024-01-25T15:33:22;9.90;99.90
12307;DHT22;6216;51.146;7.008;2024-01-25T15:35:50;9.80;99.90
12307;DHT22;6216;51.146;7.008;2024-01-25T15:38:18;9.90;99.90
12307;DHT22;6216;51.146;7.008;2024-01-25T15:40:46;9.80;99.90
12307;DHT22;6216;51.146;7.008;2024-01-25T15:43:14;9.70;99.90
12307;DHT22;6216;51.146;7.008;2024-01-25T15:45:43;9.70;99.90
12307;DHT22;6216;51.146;7.008;2024-01-25T15:48:12;9.70;99.90
12307;DHT22;6216;51.146;7.008;2024-01-25T15:50:40;9.70;99.90
12307;DHT22;6216;51.146;7.008;2024-01-25T15:53:08;9.70;99.90
12307;DHT22;6216;51.146;7.008;2024-01-25T15:55:37;9.60;99.90
12307;DHT22;6216;51.146;7.008;2024-01-25T15:58:05;9.60;99.90
12307;DHT22;6216;51.146;7.008;2024-01-25T16:00:33;9.60;99.90
12307;DHT22;6216;51.146;7.008;2024-01-25T16:03:03;9.60;99.90
12307;DHT22;6216;51.146;7.008;2024-01-25T16:05:32;9.60;99.90